Aérodrome :
LOGIN :

S'inscrire | Disclaimer

   EN    FR    IT 

 










Légende :    VFR   VFR Marginal   IFR   IFR Intensif   IFR Très Intensif
Visi : 
Plafond : 
>= 8 km
>= 3000ft
5 à 8 km
1000 à 3000 ft
1500m à 5 km
500 à 1000 ft
800 à 1500m
200 à 500 ft
< 800m
< 200 ft
Symboles :   Orages  Brouillard  Fortes neiges  Fortes précipitations  Vent > 20 kt
SIGMETs :   Divers  Orages  Givrage  Turbulence  Onde Orograph.  Cendres Volcan.







- Altitude de l'aérodrome : 42 ft
- Code IATA : KGD


UMKK - Khrabrava - Kaliningrad

DERNIER METAR :
  • 181900Z 14002MPS CAVOK 17/12 Q1018 R24/CLRD60 NOSIG RMK QFE762/1016

METARs EXPIRÉS :
  • 181830Z VRB01MPS CAVOK 19/12 Q1018 R24/60D NOSIG RMK QFE762/1016
  • 181800Z 15001MPS CAVOK 19/11 Q1018 R24/CLRD60 NOSIG RMK QFE762/1016
  • 181730Z VRB01MPS CAVOK 20/11 Q1018 R24/CLRD60 NOSIG RMK QFE762/1016
  • 181700Z 33002MPS CAVOK 19/11 Q1018 R24/CLRD60 NOSIG RMK QFE762/1016
  • 181630Z 32003MPS 280V350 CAVOK 20/11 Q1018 R24/CLRD60 NOSIG RMK QFE762/1016

TAF TAF UMKK
Valide du 18 à 15h jusqu'au 19 à 15h UTC


181400Z 1815/1915 30005G10MPS 9999 SCT011
TEMPO 1815/1817 35007MPS -SHRA SCT011 SCT020CB
FM181700 VRB01MPS 4000 BR BKN012
BECMG 1823/1901 20003G08MPS
BECMG 1905/1907 25007G13MPS
TEMPO 1907/1915 28010G16MPS 3100 -SHRA BR BKN012CB



MET'MAP, la Météo Aéronautique d'un coup d'oeil ! - Copyright ORBIFLY Décembre 2007 - Disclaimer

ORBIFLY MET'MAP TEAM :

Programmation & Développement : Alexandra Zaïnal
Conception & Développement : Baudouin d'Aumeries
Co-Programmation & Développement : Marc-Olivier Méhu
Soutien technique & logistique : Manuel Goepfert

Contact : metmap@orbifly.com




SOURCES & CREDITS :

   NOAA